TAF and METAR

METAR for Shiraz International Airport

OISS 192030Z 00000KT CAVOK 15/04 Q1022 A3021
Report created 19. okt 22:30
wind 0 knots from N (000°) Clear sky Temperature 15° with dewpoint at 4° (Humidity 47.75%) Pressure 1022 hPa

TAF for Shiraz International Airport

TAF OISS 191730Z 1918/2024 26006KT 9999 FEW040 TEMPO 2010/2014 27012G22KT FEW035TCU SCT040
Report created 19. okt 19:30

between 19. okt 20:00 - 20. okt 02:00

wind 6 knots from W (260°) visibility > 10km some clouds (~25% cover) at 4000 feet

temporarily between 20. okt 12:00 - 20. okt 16:00

wind 12 knots from W (270°) with gusts up to 22 knots some clouds (~25% cover) at 3500 feet of type towering cumulus scattered clouds (~50% cover) at 4000 feet
Shiraz International Airport in Iran at 1491m

Latest 5 airports